LIBP/PSR METAR and TAF weather

Enter ICAO airport designator
Station Type Date Time Source
LIBP METAR 2024/06/16 08:50 UTC NOAA

LIBP 160850Z AUTO 04009KT 350V060 9999 NCD 27/19 Q1010


Station Type Date Time Source
LIBP Decoded METAR 2024/06/16 08:50 UTC NOAA

Pescara, Italy (LIBP) 42-26N 014-12E 11M
Jun 16, 2024 - 04:50 AM EDT / 2024.06.16 0850 UTC
Wind: from the NE (040 degrees) at 10 MPH (9 KT) (direction variable):0
Visibility: greater than 7 mile(s):0
Temperature: 80 F (27 C)
Dew Point: 66 F (19 C)
Relative Humidity: 61%
Pressure (altimeter): 29.83 in. Hg (1010 hPa)
ob: LIBP 160850Z AUTO 04009KT 350V060 9999 NCD 27/19 Q1010
cycle: 9

Station Type Date Time Source
LIBP TAF 2024/06/16 06:21 UTC NOAA